Time;durP1;ratioP1;P1;durP2;ratioP2;P2;SDS_P1;SDS_P2;PMS_P1;PMS_P2;Temp;Humidity;BMP_temperature;BMP_pressure;BME280_temperature;BME280_humidity;BME280_pressure;Samples;Min_cycle;Max_cycle;Signal;HPM_P1;HPM_P2
2022/09/01 03:01:41;;;;;;;1.77;1.67;;;17.10;83.30;;;;;;5652630;22;20588;-77
2022/09/01 03:04:08;;;;;;;1.70;1.60;;;17.10;83.20;;;;;;5035817;28;20497;-77
2022/09/01 03:06:37;;;;;;;1.70;1.60;;;17.10;83.30;;;;;;5036124;28;20551;-77
2022/09/01 03:09:06;;;;;;;1.33;1.27;;;17.10;83.30;;;;;;5036046;28;20448;-77
2022/09/01 03:11:36;;;;;;;1.83;1.73;;;17.10;83.10;;;;;;5035637;28;20974;-77
2022/09/01 03:14:03;;;;;;;1.73;1.63;;;17.00;83.30;;;;;;5037154;28;21026;-77
2022/09/01 03:16:30;;;;;;;1.50;1.40;;;17.00;83.20;;;;;;5035916;28;20444;-77
2022/09/01 03:19:02;;;;;;;1.67;1.57;;;17.00;83.30;;;;;;5035821;28;20479;-77
2022/09/01 03:21:30;;;;;;;1.77;1.67;;;17.00;83.40;;;;;;5035879;28;20562;-77
2022/09/01 03:24:00;;;;;;;1.60;1.50;;;17.00;83.40;;;;;;5035416;28;20459;-77
2022/09/01 03:26:27;;;;;;;1.50;1.40;;;17.00;83.50;;;;;;5035974;28;20460;-75
2022/09/01 03:28:54;;;;;;;1.50;1.40;;;16.90;83.50;;;;;;5035732;28;20436;-74
2022/09/01 03:31:21;;;;;;;1.77;1.67;;;16.90;83.50;;;;;;5035613;28;20521;-74
2022/09/01 03:33:49;;;;;;;1.70;1.60;;;16.90;83.40;;;;;;5035631;28;20459;-74
2022/09/01 03:36:18;;;;;;;1.70;1.60;;;17.00;83.50;;;;;;5035573;28;20466;-74
2022/09/01 03:38:47;;;;;;;1.77;1.67;;;17.00;83.40;;;;;;5035479;28;20575;-74
2022/09/01 03:41:16;;;;;;;1.80;1.70;;;17.00;83.20;;;;;;5035084;28;20923;-74
2022/09/01 03:43:44;;;;;;;1.17;1.17;;;16.90;83.30;;;;;;5035156;28;20451;-74
2022/09/01 03:46:15;;;;;;;1.90;1.80;;;17.00;83.10;;;;;;5035360;28;20451;-74
2022/09/01 03:48:42;;;;;;;1.63;1.53;;;17.00;82.90;;;;;;5035421;28;20436;-74
2022/09/01 03:51:10;;;;;;;2.10;1.87;;;17.00;82.90;;;;;;5035186;28;20558;-74
2022/09/01 03:53:39;;;;;;;1.73;1.63;;;17.00;83.10;;;;;;5035239;28;20447;-74
2022/09/01 03:56:07;;;;;;;1.77;1.67;;;16.90;83.00;;;;;;5035233;28;20444;-74
2022/09/01 03:58:35;;;;;;;1.90;1.80;;;16.90;82.90;;;;;;5035049;28;20483;-74
2022/09/01 04:01:03;;;;;;;1.73;1.63;;;16.90;82.90;;;;;;5034864;28;20475;-74
2022/09/01 04:03:33;;;;;;;1.90;1.80;;;16.90;82.90;;;;;;5035126;28;20515;-74
2022/09/01 04:06:01;;;;;;;2.07;1.97;;;16.90;82.90;;;;;;5034986;28;20550;-74
2022/09/01 04:08:30;;;;;;;1.70;1.60;;;16.90;82.90;;;;;;5034913;28;20530;-74
2022/09/01 04:11:01;;;;;;;1.77;1.67;;;16.90;82.90;;;;;;5034571;28;21061;-74
2022/09/01 04:13:31;;;;;;;1.80;1.70;;;16.90;82.90;;;;;;5034550;28;20451;-74
2022/09/01 04:15:58;;;;;;;1.87;1.77;;;16.80;83.10;;;;;;5034823;28;20440;-74
2022/09/01 04:18:24;;;;;;;1.90;1.80;;;16.90;82.90;;;;;;5034685;28;20479;-74
2022/09/01 04:20:53;;;;;;;1.90;1.80;;;16.90;82.90;;;;;;5034673;28;20466;-73
2022/09/01 04:23:25;;;;;;;1.73;1.63;;;16.90;82.90;;;;;;5034681;28;20864;-73
2022/09/01 04:25:55;;;;;;;1.80;1.70;;;16.80;83.20;;;;;;5034571;28;20515;-74
2022/09/01 04:28:24;;;;;;;1.70;1.60;;;16.90;83.40;;;;;;5034794;28;20444;-74
2022/09/01 04:30:54;;;;;;;1.70;1.60;;;16.90;83.60;;;;;;5034870;28;20842;-74
2022/09/01 04:33:22;;;;;;;1.87;1.77;;;17.00;83.40;;;;;;5034250;28;20897;-74
2022/09/01 04:35:53;;;;;;;2.00;1.90;;;17.00;83.40;;;;;;5033734;28;20817;-73
2022/09/01 04:38:21;;;;;;;1.87;1.77;;;17.00;83.60;;;;;;5034311;28;20554;-73
2022/09/01 04:40:49;;;;;;;1.90;1.80;;;17.00;83.70;;;;;;5034239;28;20522;-73
2022/09/01 04:43:15;;;;;;;1.97;1.87;;;17.00;84.00;;;;;;5034026;28;20451;-73
2022/09/01 04:45:49;;;;;;;1.97;1.87;;;17.10;84.10;;;;;;5034241;28;20848;-74
2022/09/01 04:48:16;;;;;;;1.97;1.87;;;17.10;84.30;;;;;;5034275;28;20526;-73
2022/09/01 04:50:42;;;;;;;1.77;1.67;;;17.10;84.60;;;;;;5034068;28;20498;-74
2022/09/01 04:53:10;;;;;;;1.93;1.83;;;17.20;84.80;;;;;;5034123;28;20447;-74
2022/09/01 04:55:42;;;;;;;1.90;1.80;;;17.20;84.70;;;;;;5034100;28;20455;-74
2022/09/01 04:58:12;;;;;;;2.00;1.90;;;17.20;84.60;;;;;;5034010;28;20475;-74
2022/09/01 05:00:40;;;;;;;1.90;1.80;;;17.30;84.50;;;;;;5033516;28;20456;-74
2022/09/01 05:03:09;;;;;;;1.83;1.73;;;17.30;84.40;;;;;;5033983;28;20431;-74
2022/09/01 05:05:41;;;;;;;2.10;2.00;;;17.30;84.50;;;;;;5033963;28;20451;-74
2022/09/01 05:08:09;;;;;;;2.20;2.10;;;17.30;84.60;;;;;;5033984;28;20436;-74
2022/09/01 05:10:40;;;;;;;1.97;1.87;;;17.30;84.70;;;;;;5033748;28;20490;-74
2022/09/01 05:13:08;;;;;;;2.10;2.00;;;17.40;84.70;;;;;;5033893;28;20522;-74
2022/09/01 05:15:36;;;;;;;1.90;1.80;;;17.40;84.70;;;;;;5033774;28;20462;-74
2022/09/01 05:18:08;;;;;;;2.00;1.90;;;17.40;84.90;;;;;;5033717;28;20570;-74
2022/09/01 05:20:41;;;;;;;1.93;1.83;;;17.50;85.10;;;;;;5033670;28;20442;-74
2022/09/01 05:23:11;;;;;;;1.90;1.80;;;17.60;85.30;;;;;;5033375;28;20807;-73
2022/09/01 05:25:39;;;;;;;2.50;2.40;;;17.70;85.40;;;;;;5034170;28;20529;-73
2022/09/01 05:28:08;;;;;;;2.43;2.33;;;17.90;85.20;;;;;;5033570;28;20443;-73
2022/09/01 05:30:37;;;;;;;2.10;2.00;;;18.00;85.00;;;;;;5033141;28;20452;-73
2022/09/01 05:33:08;;;;;;;1.93;1.83;;;18.20;84.10;;;;;;5033503;28;20455;-73
2022/09/01 05:35:35;;;;;;;1.83;1.73;;;18.40;83.70;;;;;;5033552;28;20550;-74
2022/09/01 05:38:03;;;;;;;2.00;1.90;;;18.50;83.70;;;;;;5033370;28;20486;-73
2022/09/01 05:40:31;;;;;;;1.83;1.73;;;18.60;82.90;;;;;;5033338;28;20505;-73
2022/09/01 05:42:58;;;;;;;1.70;1.60;;;18.70;82.30;;;;;;5033322;28;20853;-74
2022/09/01 05:45:25;;;;;;;2.00;1.90;;;18.90;82.20;;;;;;5033374;28;20447;-73
2022/09/01 05:47:53;;;;;;;1.83;1.73;;;19.00;81.80;;;;;;5033231;28;20451;-73
2022/09/01 05:50:20;;;;;;;2.00;1.90;;;19.20;81.60;;;;;;5032998;28;20988;-74
2022/09/01 05:52:49;;;;;;;1.43;1.33;;;19.30;81.40;;;;;;5033155;28;20888;-73
2022/09/01 05:55:17;;;;;;;1.20;1.20;;;19.50;80.40;;;;;;5033240;28;20490;-73
2022/09/01 05:57:46;;;;;;;1.60;1.50;;;19.50;79.80;;;;;;5033153;28;20501;-74
2022/09/01 06:00:16;;;;;;;1.67;1.57;;;19.50;79.30;;;;;;5033250;28;20462;-74
2022/09/01 06:02:43;;;;;;;1.70;1.60;;;19.50;79.10;;;;;;5032840;28;20489;-74
2022/09/01 06:05:12;;;;;;;1.90;1.80;;;19.40;78.90;;;;;;5032801;28;20448;-75
2022/09/01 06:07:41;;;;;;;1.57;1.47;;;19.40;79.10;;;;;;5033153;28;20453;-74
2022/09/01 06:10:08;;;;;;;1.70;1.60;;;19.40;79.00;;;;;;5033133;28;20452;-75
2022/09/01 06:12:38;;;;;;;1.67;1.57;;;19.40;79.10;;;;;;5032719;28;20475;-75
2022/09/01 06:15:14;;;;;;;1.70;1.60;;;19.40;79.60;;;;;;5033342;28;20455;-76
2022/09/01 06:17:42;;;;;;;1.60;1.50;;;19.30;80.00;;;;;;5032895;28;20914;-78
2022/09/01 06:20:10;;;;;;;1.70;1.60;;;19.30;80.30;;;;;;5037954;28;20795;-81
2022/09/01 06:22:36;;;;;;;1.40;1.40;;;19.20;80.80;;;;;;5038021;28;20472;-81
2022/09/01 06:25:05;;;;;;;1.40;1.30;;;19.20;81.20;;;;;;5037509;28;20448;-81
2022/09/01 06:27:32;;;;;;;1.70;1.60;;;19.20;81.30;;;;;;5037959;28;20443;-80
2022/09/01 06:30:01;;;;;;;1.90;1.80;;;19.20;81.30;;;;;;5037657;28;20513;-81
2022/09/01 06:32:28;;;;;;;1.60;1.50;;;19.10;81.50;;;;;;5034211;28;20475;-79
2022/09/01 06:34:56;;;;;;;1.70;1.60;;;19.00;82.10;;;;;;5033798;28;20490;-77
2022/09/01 06:37:23;;;;;;;1.90;1.80;;;18.80;82.60;;;;;;5035293;28;20505;-80
2022/09/01 06:39:50;;;;;;;1.80;1.70;;;18.90;82.50;;;;;;5033711;28;20479;-79
2022/09/01 06:42:18;;;;;;;1.93;1.83;;;18.90;82.60;;;;;;5033159;28;20471;-78
2022/09/01 06:44:45;;;;;;;1.80;1.70;;;18.90;82.70;;;;;;5033490;28;20510;-79
2022/09/01 06:47:14;;;;;;;1.60;1.50;;;19.00;82.70;;;;;;5033888;28;20451;-79
2022/09/01 06:49:41;;;;;;;1.57;1.47;;;19.10;82.60;;;;;;5034352;28;20523;-80
2022/09/01 06:52:10;;;;;;;1.40;1.30;;;19.10;82.80;;;;;;5033890;28;20480;-77
2022/09/01 06:54:38;;;;;;;1.57;1.47;;;19.20;83.10;;;;;;5034124;28;20439;-80
2022/09/01 06:57:05;;;;;;;1.53;1.43;;;19.30;83.60;;;;;;5034117;28;20456;-79
2022/09/01 06:59:32;;;;;;;1.57;1.47;;;19.50;82.80;;;;;;5037549;28;20514;-80
2022/09/01 07:02:00;;;;;;;1.50;1.47;;;19.60;82.60;;;;;;5038154;28;20475;-79
2022/09/01 07:04:29;;;;;;;1.50;1.40;;;19.70;81.50;;;;;;5038500;28;21145;-80
2022/09/01 07:06:56;;;;;;;1.27;1.27;;;19.80;81.30;;;;;;5038885;28;20507;-80
2022/09/01 07:09:23;;;;;;;1.50;1.40;;;19.90;81.00;;;;;;5036912;28;20450;-78
2022/09/01 07:11:51;;;;;;;1.63;1.53;;;20.00;80.30;;;;;;5036048;28;20463;-79
2022/09/01 07:14:19;;;;;;;1.50;1.40;;;20.10;80.40;;;;;;5037203;28;20951;-79
2022/09/01 07:16:46;;;;;;;1.57;1.47;;;20.10;80.10;;;;;;5038119;28;20455;-79
2022/09/01 07:19:13;;;;;;;1.70;1.60;;;20.10;80.20;;;;;;5036740;28;20491;-79
2022/09/01 07:21:43;;;;;;;1.30;1.30;;;20.10;81.00;;;;;;5036864;28;20882;-78
2022/09/01 07:24:10;;;;;;;1.57;1.47;;;20.00;81.00;;;;;;5036889;28;20456;-79
2022/09/01 07:26:38;;;;;;;1.30;1.30;;;19.90;80.20;;;;;;5037336;28;20965;-79
2022/09/01 07:29:06;;;;;;;1.80;1.70;;;19.90;80.60;;;;;;5036230;28;20935;-79
2022/09/01 07:31:37;;;;;;;1.30;1.27;;;19.90;81.00;;;;;;5036556;28;20533;-79
2022/09/01 07:34:11;;;;;;;1.70;1.60;;;19.80;81.10;;;;;;5036442;28;20435;-79
2022/09/01 07:36:38;;;;;;;1.70;1.60;;;19.90;81.70;;;;;;5036133;28;21013;-78
2022/09/01 07:39:07;;;;;;;1.33;1.33;;;20.00;82.00;;;;;;5035300;28;21025;-77
2022/09/01 07:41:34;;;;;;;1.53;1.43;;;20.00;81.90;;;;;;5036085;28;20490;-79
2022/09/01 07:44:02;;;;;;;1.40;1.40;;;20.00;81.90;;;;;;5035654;28;20974;-78
2022/09/01 07:46:31;;;;;;;1.30;1.20;;;20.10;81.60;;;;;;5035499;28;20462;-71
2022/09/01 07:49:00;;;;;;;1.57;1.47;;;20.10;81.30;;;;;;5035381;28;20530;-70
2022/09/01 07:51:28;;;;;;;1.50;1.40;;;20.00;81.50;;;;;;5035630;28;20562;-78
2022/09/01 07:53:55;;;;;;;1.10;1.10;;;20.00;81.00;;;;;;5035300;28;20448;-78
2022/09/01 07:56:25;;;;;;;1.30;1.30;;;19.60;81.60;;;;;;5035447;28;20509;-78
2022/09/01 07:58:52;;;;;;;1.00;1.00;;;19.50;80.60;;;;;;5035364;28;20490;-78
2022/09/01 08:01:21;;;;;;;1.20;1.20;;;19.50;81.20;;;;;;5034637;28;20475;-77
2022/09/01 08:03:50;;;;;;;1.10;1.10;;;19.30;81.40;;;;;;5034934;28;20530;-77
2022/09/01 08:06:19;;;;;;;1.37;1.27;;;19.40;81.90;;;;;;5035479;28;20451;-78
2022/09/01 08:08:47;;;;;;;1.10;1.10;;;19.50;81.80;;;;;;5035406;28;20509;-78
2022/09/01 08:11:18;;;;;;;1.23;1.23;;;19.50;82.00;;;;;;5034808;28;20537;-79
2022/09/01 08:13:47;;;;;;;1.10;1.10;;;19.50;82.10;;;;;;5035604;28;20440;-78
2022/09/01 08:16:14;;;;;;;1.07;1.07;;;19.40;82.00;;;;;;5035039;28;21034;-79
2022/09/01 08:18:41;;;;;;;1.30;1.30;;;19.50;82.30;;;;;;5036137;28;20511;-79
2022/09/01 08:21:08;;;;;;;1.33;1.33;;;19.40;82.30;;;;;;5034780;28;20880;-79
2022/09/01 08:23:37;;;;;;;1.30;1.20;;;19.60;82.70;;;;;;5034767;28;20562;-79
2022/09/01 08:26:06;;;;;;;1.20;1.20;;;19.60;82.80;;;;;;5034382;28;20931;-78
2022/09/01 08:28:33;;;;;;;1.43;1.33;;;19.70;82.90;;;;;;5034890;28;20539;-78
2022/09/01 08:31:06;;;;;;;1.30;1.30;;;19.90;82.40;;;;;;5034334;28;20974;-79
2022/09/01 08:33:33;;;;;;;1.50;1.50;;;20.00;81.10;;;;;;5034345;28;20435;-79
2022/09/01 08:36:01;;;;;;;1.30;1.30;;;20.00;81.30;;;;;;5034646;28;20452;-79
2022/09/01 08:38:28;;;;;;;1.40;1.30;;;20.00;80.80;;;;;;5034482;28;20506;-79
2022/09/01 08:40:57;;;;;;;1.20;1.20;;;20.10;79.90;;;;;;5034494;28;20479;-79
2022/09/01 08:43:34;;;;;;;0.93;0.93;;;20.00;79.70;;;;;;5034125;28;20964;-78
2022/09/01 08:46:09;;;;;;;1.07;1.07;;;19.90;79.90;;;;;;5034461;28;20432;-78
2022/09/01 08:48:40;;;;;;;1.03;1.03;;;20.00;80.70;;;;;;5034270;28;20847;-79
2022/09/01 08:51:27;;;;;;;1.17;1.10;;;20.00;78.00;;;;;;5034426;28;20470;-79
2022/09/01 08:54:05;;;;;;;1.00;1.00;;;19.90;79.80;;;;;;5034251;28;20458;-78
2022/09/01 08:56:35;;;;;;;1.23;1.23;;;20.00;79.30;;;;;;5034318;28;20447;-78
2022/09/01 08:59:02;;;;;;;1.00;1.00;;;19.90;79.70;;;;;;5034045;28;20497;-78
2022/09/01 09:01:37;;;;;;;1.03;1.03;;;19.80;79.80;;;;;;5033885;28;20519;-78
2022/09/01 09:04:20;;;;;;;0.93;0.93;;;19.80;79.60;;;;;;5034673;28;20435;-78
2022/09/01 09:06:54;;;;;;;1.10;1.10;;;19.90;79.90;;;;;;5034161;28;20494;-77
2022/09/01 09:09:28;;;;;;;0.90;0.90;;;20.10;80.20;;;;;;5034061;28;20419;-78
2022/09/01 09:12:09;;;;;;;1.30;1.30;;;20.50;79.10;;;;;;5033956;28;20475;-78
2022/09/01 09:14:59;;;;;;;1.10;1.10;;;20.80;78.70;;;;;;5035681;28;20447;-79
2022/09/01 09:17:33;;;;;;;0.83;0.83;;;20.90;77.20;;;;;;5034107;28;20432;-78
2022/09/01 09:20:01;;;;;;;0.97;0.97;;;21.10;77.20;;;;;;5033918;28;20467;-78
2022/09/01 09:22:28;;;;;;;0.87;0.87;;;20.90;74.30;;;;;;5033313;28;20467;-78
2022/09/01 09:25:02;;;;;;;0.97;0.97;;;21.00;74.70;;;;;;5033738;28;20501;-78
2022/09/01 09:27:32;;;;;;;0.90;0.90;;;21.00;75.10;;;;;;5033765;28;20458;-78
2022/09/01 09:30:00;;;;;;;1.00;1.00;;;21.20;75.70;;;;;;5033638;28;20440;-78
2022/09/01 09:32:45;;;;;;;0.83;0.83;;;21.30;74.40;;;;;;5034047;28;20463;-78
2022/09/01 09:35:26;;;;;;;0.90;0.90;;;21.20;74.70;;;;;;5034021;28;20404;-78
2022/09/01 09:37:53;;;;;;;0.80;0.80;;;21.10;72.80;;;;;;5033596;28;20789;-79
2022/09/01 09:40:22;;;;;;;0.80;0.80;;;21.10;72.90;;;;;;5033481;28;20483;-77
2022/09/01 09:43:06;;;;;;;0.80;0.80;;;21.00;72.90;;;;;;5033793;28;20444;-78
2022/09/01 09:45:36;;;;;;;1.33;0.70;;;21.10;73.30;;;;;;5033631;28;20775;-78
2022/09/01 09:48:08;;;;;;;0.80;0.80;;;20.90;73.60;;;;;;5033563;28;20455;-78
2022/09/01 09:50:38;;;;;;;0.87;0.80;;;20.80;74.80;;;;;;5033162;28;20918;-78
2022/09/01 09:53:14;;;;;;;0.93;0.80;;;21.00;74.10;;;;;;5033476;28;20455;-78
2022/09/01 09:55:54;;;;;;;0.77;0.77;;;21.20;74.00;;;;;;5033887;28;20926;-77
2022/09/01 09:58:25;;;;;;;0.70;0.60;;;21.20;74.10;;;;;;5033562;28;20428;-79
2022/09/01 10:01:04;;;;;;;1.10;1.00;;;21.20;73.20;;;;;;5032791;28;20488;-78
2022/09/01 10:03:41;;;;;;;0.70;0.70;;;21.10;73.00;;;;;;5033066;28;20895;-78
2022/09/01 10:06:14;;;;;;;0.83;0.83;;;20.80;73.60;;;;;;5033667;28;20447;-79
2022/09/01 10:08:44;;;;;;;0.80;0.80;;;20.90;72.70;;;;;;5033302;28;20447;-76
2022/09/01 10:11:25;;;;;;;1.00;0.80;;;21.10;73.10;;;;;;5034534;28;20463;-79
2022/09/01 10:13:52;;;;;;;0.80;0.80;;;21.00;73.00;;;;;;5033249;28;20861;-78
2022/09/01 10:16:25;;;;;;;0.70;0.70;;;21.10;72.80;;;;;;5033056;28;20846;-78
2022/09/01 10:18:59;;;;;;;0.70;0.70;;;21.10;71.40;;;;;;5033392;28;20447;-78
2022/09/01 10:21:31;;;;;;;0.80;0.70;;;21.20;71.90;;;;;;5033015;28;20886;-78
2022/09/01 10:23:59;;;;;;;1.30;0.80;;;21.10;71.90;;;;;;5033578;28;20507;-79
2022/09/01 10:26:30;;;;;;;0.80;0.80;;;21.20;71.40;;;;;;5033535;28;20543;-78
2022/09/01 10:29:01;;;;;;;0.70;0.60;;;21.40;70.90;;;;;;5033541;28;20440;-78
2022/09/01 10:31:29;;;;;;;0.70;0.70;;;21.40;70.20;;;;;;5033025;28;20839;-77
2022/09/01 10:33:58;;;;;;;0.70;0.60;;;21.00;71.90;;;;;;5035082;28;20811;-78
2022/09/01 10:36:25;;;;;;;0.70;0.70;;;20.90;72.00;;;;;;5036746;28;20542;-78
2022/09/01 10:38:52;;;;;;;0.70;0.67;;;21.00;71.80;;;;;;5037028;28;20451;-78
2022/09/01 10:41:55;;;;;;;0.70;0.70;;;20.80;71.80;;;;;;5036809;28;20487;-78
2022/09/01 10:44:29;;;;;;;0.70;0.67;;;21.10;70.60;;;;;;5036696;28;20838;-78
2022/09/01 10:46:57;;;;;;;0.80;0.70;;;21.10;69.20;;;;;;5036660;28;20899;-78
2022/09/01 10:50:00;;;;;;;0.70;0.70;;;21.20;71.10;;;;;;5036590;28;20935;-77
2022/09/01 10:53:06;;;;;;;0.70;0.70;;;21.10;70.60;;;;;;5036594;28;20517;-78
2022/09/01 10:55:37;;;;;;;0.70;0.60;;;21.20;69.90;;;;;;4975412;28;20458;-78
2022/09/01 10:58:29;;;;;;;0.70;0.63;;;21.20;69.60;;;;;;5027208;28;20458;-78
2022/09/01 11:00:57;;;;;;;0.70;0.60;;;21.40;70.30;;;;;;5029433;28;20494;-77
2022/09/01 11:03:53;;;;;;;0.70;0.70;;;21.50;68.60;;;;;;5047880;28;20428;-78
2022/09/01 11:06:54;;;;;;;0.90;0.70;;;21.50;68.20;;;;;;5047521;28;20455;-78
2022/09/01 11:09:28;;;;;;;0.80;0.70;;;21.50;69.00;;;;;;5047250;28;20428;-77
2022/09/01 11:12:30;;;;;;;0.70;0.60;;;21.00;70.30;;;;;;5046366;28;20467;-77
2022/09/01 11:14:59;;;;;;;0.70;0.60;;;21.10;70.70;;;;;;5044617;28;20562;-78
2022/09/01 11:17:28;;;;;;;0.77;0.70;;;21.30;70.90;;;;;;5046128;28;20442;-78
2022/09/01 11:19:59;;;;;;;0.70;0.70;;;21.70;69.70;;;;;;5047414;28;20479;-78
2022/09/01 11:22:33;;;;;;;0.70;0.70;;;22.10;69.10;;;;;;5047353;28;20819;-78
2022/09/01 11:25:36;;;;;;;0.70;0.60;;;22.40;69.10;;;;;;5046617;28;20436;-80
2022/09/01 11:28:45;;;;;;;0.80;0.60;;;22.80;67.80;;;;;;5046641;28;20452;-80
2022/09/01 11:31:28;;;;;;;0.70;0.60;;;22.90;65.30;;;;;;5048108;28;20467;-77
2022/09/01 11:34:18;;;;;;;0.70;0.60;;;23.10;65.10;;;;;;5046456;28;20494;-79
2022/09/01 11:36:59;;;;;;;0.90;0.67;;;23.40;64.30;;;;;;5046728;28;20472;-77
2022/09/01 11:39:32;;;;;;;0.80;0.60;;;23.30;64.50;;;;;;5037904;28;20443;-77
2022/09/01 11:42:05;;;;;;;0.70;0.60;;;23.10;65.60;;;;;;5035954;28;20470;-77
2022/09/01 11:44:40;;;;;;;0.80;0.60;;;23.10;65.60;;;;;;5035609;28;20428;-77
2022/09/01 11:47:10;;;;;;;0.70;0.63;;;23.20;64.50;;;;;;5039379;28;20439;-78
2022/09/01 11:49:45;;;;;;;0.70;0.60;;;22.70;64.90;;;;;;5049050;28;20446;-78
2022/09/01 11:52:15;;;;;;;0.70;0.60;;;22.40;65.20;;;;;;5049008;28;20467;-78
2022/09/01 11:54:45;;;;;;;0.83;0.77;;;22.70;65.30;;;;;;5048950;28;20458;-78
2022/09/01 11:57:23;;;;;;;2.13;0.67;;;22.70;64.80;;;;;;5049324;28;20456;-78
2022/09/01 11:59:50;;;;;;;0.80;0.70;;;23.00;65.40;;;;;;5048269;28;20467;-77
2022/09/01 12:02:19;;;;;;;0.70;0.67;;;22.80;64.50;;;;;;5047325;28;20471;-78
2022/09/01 12:04:46;;;;;;;0.70;0.60;;;23.10;65.00;;;;;;5047469;28;20895;-78
2022/09/01 12:07:26;;;;;;;0.70;0.60;;;23.20;63.40;;;;;;5046649;28;20458;-76
2022/09/01 12:10:02;;;;;;;0.80;0.63;;;23.00;64.70;;;;;;5046783;28;20803;-77
2022/09/01 12:12:33;;;;;;;0.70;0.60;;;22.80;64.30;;;;;;5046326;28;20478;-77
2022/09/01 12:15:05;;;;;;;0.70;0.60;;;23.00;64.10;;;;;;5047273;28;20455;-77
2022/09/01 12:17:33;;;;;;;0.70;0.70;;;23.40;62.50;;;;;;5046861;28;20466;-79
2022/09/01 12:20:22;;;;;;;0.80;0.80;;;23.20;64.10;;;;;;5046986;28;20485;-77
2022/09/01 12:22:48;;;;;;;0.80;0.70;;;23.00;65.80;;;;;;5048963;28;20471;-80
2022/09/01 12:25:21;;;;;;;0.70;0.70;;;23.20;65.40;;;;;;5048286;28;20440;-79
2022/09/01 12:27:50;;;;;;;0.70;0.70;;;23.60;66.00;;;;;;5046808;28;20938;-77
2022/09/01 12:30:26;;;;;;;0.70;0.70;;;23.90;63.80;;;;;;5046285;28;21018;-80
2022/09/01 12:32:53;;;;;;;0.70;0.63;;;24.20;62.20;;;;;;5047207;28;20428;-76
2022/09/01 12:35:22;;;;;;;0.80;0.70;;;24.20;61.90;;;;;;5044069;28;20466;-75
2022/09/01 12:37:51;;;;;;;0.70;0.70;;;24.10;62.70;;;;;;5034625;28;20444;-77
2022/09/01 12:40:23;;;;;;;0.77;0.60;;;24.30;64.30;;;;;;5034331;28;20583;-78
2022/09/01 12:42:53;;;;;;;0.70;0.60;;;24.80;62.00;;;;;;5034408;28;20467;-77
2022/09/01 12:45:42;;;;;;;0.70;0.63;;;25.10;60.70;;;;;;5034266;28;20841;-77
2022/09/01 12:48:24;;;;;;;0.70;0.70;;;25.20;60.60;;;;;;5034391;28;20918;-77
2022/09/01 12:50:52;;;;;;;0.70;0.70;;;24.90;59.60;;;;;;5034610;28;20797;-76
2022/09/01 12:53:26;;;;;;;0.70;0.60;;;24.50;60.80;;;;;;5034345;28;20469;-76
2022/09/01 12:56:04;;;;;;;0.70;0.60;;;24.20;62.10;;;;;;5033607;28;20439;-77
2022/09/01 12:58:32;;;;;;;0.80;0.70;;;24.00;62.50;;;;;;5034409;28;20423;-76
2022/09/01 13:01:04;;;;;;;0.80;0.70;;;23.90;62.40;;;;;;5033992;28;20498;-76
2022/09/01 13:03:32;;;;;;;0.90;0.60;;;24.10;61.90;;;;;;5034271;28;20478;-76
2022/09/01 13:06:00;;;;;;;0.80;0.70;;;23.90;61.80;;;;;;5034224;28;20513;-76
2022/09/01 13:08:29;;;;;;;0.73;0.70;;;23.90;61.80;;;;;;5033894;28;20456;-76
2022/09/01 13:10:59;;;;;;;0.90;0.70;;;23.90;61.80;;;;;;5033885;28;20986;-76
2022/09/01 13:13:26;;;;;;;0.80;0.70;;;23.80;62.60;;;;;;5034454;28;20456;-77
2022/09/01 13:16:00;;;;;;;0.80;0.70;;;23.70;63.50;;;;;;5034076;28;20856;-76
2022/09/01 13:18:27;;;;;;;0.90;0.80;;;23.80;62.90;;;;;;5033967;28;20519;-76
2022/09/01 13:20:56;;;;;;;0.70;0.70;;;24.20;62.50;;;;;;5033665;28;20514;-77
2022/09/01 13:23:23;;;;;;;0.80;0.70;;;24.60;62.40;;;;;;5033954;28;20455;-77
2022/09/01 13:25:50;;;;;;;0.77;0.63;;;24.70;61.50;;;;;;5033838;28;20459;-76
2022/09/01 13:28:17;;;;;;;0.70;0.60;;;24.90;60.00;;;;;;5033733;28;20451;-76
2022/09/01 13:30:54;;;;;;;0.70;0.60;;;24.90;58.20;;;;;;5033651;28;20467;-76
2022/09/01 13:33:22;;;;;;;0.70;0.60;;;24.70;57.90;;;;;;5033862;28;20438;-76
2022/09/01 13:35:49;;;;;;;0.70;0.60;;;24.40;59.20;;;;;;5034225;28;20885;-77
2022/09/01 13:38:16;;;;;;;0.80;0.60;;;24.50;58.20;;;;;;5033795;28;20455;-76
2022/09/01 13:40:45;;;;;;;0.93;0.63;;;24.30;57.90;;;;;;5033998;28;20479;-78
2022/09/01 13:43:12;;;;;;;0.70;0.70;;;24.20;60.10;;;;;;5033555;28;20462;-77
2022/09/01 13:45:39;;;;;;;0.70;0.60;;;24.20;59.80;;;;;;5033523;28;20451;-77
2022/09/01 13:48:06;;;;;;;0.70;0.60;;;24.20;60.20;;;;;;5035119;28;20448;-77
2022/09/01 13:50:36;;;;;;;0.70;0.60;;;24.30;61.10;;;;;;5033493;28;20862;-77
2022/09/01 13:53:02;;;;;;;0.70;0.70;;;24.70;61.40;;;;;;5033347;28;20436;-77
2022/09/01 13:55:31;;;;;;;0.80;0.60;;;25.10;59.40;;;;;;5033875;28;20451;-79
2022/09/01 13:57:58;;;;;;;0.70;0.60;;;25.40;58.80;;;;;;5034120;28;20447;-78
2022/09/01 14:00:28;;;;;;;0.70;0.60;;;25.50;58.60;;;;;;5033187;28;20577;-76
2022/09/01 14:02:56;;;;;;;0.90;0.70;;;25.50;58.80;;;;;;5033064;28;20455;-75
2022/09/01 14:05:25;;;;;;;0.70;0.60;;;25.50;58.20;;;;;;5033305;28;20443;-76
2022/09/01 14:07:53;;;;;;;0.80;0.70;;;25.80;58.60;;;;;;5035205;28;20440;-76
2022/09/01 14:10:22;;;;;;;0.70;0.60;;;25.70;58.00;;;;;;5037336;28;20444;-76
2022/09/01 14:12:49;;;;;;;0.70;0.60;;;25.60;58.50;;;;;;5037234;28;20471;-76
2022/09/01 14:15:18;;;;;;;0.80;0.67;;;25.70;58.60;;;;;;5037477;28;20460;-77
2022/09/01 14:17:47;;;;;;;1.20;0.60;;;25.90;58.80;;;;;;5036895;28;21004;-76
2022/09/01 14:20:17;;;;;;;0.70;0.70;;;25.90;58.30;;;;;;5037010;28;20443;-77
2022/09/01 14:22:44;;;;;;;0.70;0.70;;;26.00;57.40;;;;;;5036783;28;20467;-78
2022/09/01 14:25:13;;;;;;;0.70;0.63;;;25.90;57.60;;;;;;5036769;28;20949;-77
2022/09/01 14:27:41;;;;;;;0.70;0.60;;;26.10;57.50;;;;;;5037176;28;20451;-77
2022/09/01 14:30:11;;;;;;;0.70;0.60;;;25.80;58.00;;;;;;5037043;28;20525;-76
2022/09/01 14:32:38;;;;;;;0.70;0.70;;;25.60;57.60;;;;;;5036796;28;20463;-77
2022/09/01 14:35:07;;;;;;;0.70;0.70;;;25.60;56.70;;;;;;5036712;28;20444;-78
2022/09/01 14:37:33;;;;;;;0.70;0.60;;;25.80;56.60;;;;;;5036785;28;20454;-77
2022/09/01 14:40:00;;;;;;;0.80;0.60;;;26.10;56.20;;;;;;5036458;28;20868;-77
2022/09/01 14:42:29;;;;;;;0.70;0.60;;;26.40;55.00;;;;;;5036759;28;20536;-78
2022/09/01 14:44:56;;;;;;;0.70;0.60;;;26.70;53.40;;;;;;5036823;28;20505;-77
2022/09/01 14:47:24;;;;;;;0.70;0.60;;;26.70;54.10;;;;;;5036549;28;20447;-77
2022/09/01 14:49:51;;;;;;;0.70;0.70;;;27.00;53.60;;;;;;5037174;28;20458;-76
2022/09/01 14:52:17;;;;;;;0.70;0.60;;;27.90;51.30;;;;;;5036687;28;20486;-77
2022/09/01 14:54:44;;;;;;;0.80;0.60;;;28.80;49.70;;;;;;5036556;28;20450;-74
2022/09/01 14:57:12;;;;;;;0.83;0.60;;;29.90;49.00;;;;;;5037746;28;20502;-76
2022/09/01 14:59:41;;;;;;;1.20;0.60;;;30.80;45.90;;;;;;5036605;28;20461;-76
2022/09/01 15:02:08;;;;;;;0.70;0.50;;;31.20;45.40;;;;;;5036223;28;20574;-77
2022/09/01 15:04:36;;;;;;;0.70;0.60;;;31.50;44.90;;;;;;5036553;28;20505;-79
2022/09/01 15:07:04;;;;;;;0.70;0.50;;;31.60;44.70;;;;;;5036787;28;20538;-78
2022/09/01 15:09:31;;;;;;;0.70;0.50;;;31.10;44.30;;;;;;5036333;28;20505;-78
2022/09/01 15:11:57;;;;;;;0.93;0.53;;;31.00;44.90;;;;;;5036269;28;20601;-77
2022/09/01 15:14:24;;;;;;;0.70;0.60;;;31.10;44.90;;;;;;5037920;28;20898;-78
2022/09/01 15:16:52;;;;;;;0.70;0.60;;;31.00;45.10;;;;;;5037226;28;20529;-77
2022/09/01 15:19:19;;;;;;;0.70;0.60;;;30.90;45.00;;;;;;5037662;28;20443;-77
2022/09/01 15:21:47;;;;;;;0.70;0.60;;;30.30;46.20;;;;;;5037521;28;20479;-77
2022/09/01 15:24:14;;;;;;;0.70;0.60;;;29.80;46.40;;;;;;5037633;28;20452;-77
2022/09/01 15:26:41;;;;;;;0.70;0.60;;;29.90;46.60;;;;;;5036948;28;20443;-76
2022/09/01 15:29:08;;;;;;;0.70;0.70;;;29.80;46.90;;;;;;5036564;28;20819;-76
2022/09/01 15:31:35;;;;;;;0.70;0.60;;;29.50;47.60;;;;;;5035968;28;20495;-76
2022/09/01 15:34:04;;;;;;;0.70;0.60;;;28.90;47.80;;;;;;5035873;28;20505;-76
2022/09/01 15:36:34;;;;;;;0.70;0.70;;;27.90;50.00;;;;;;5035798;28;20454;-76
2022/09/01 15:39:01;;;;;;;0.70;0.50;;;26.60;52.20;;;;;;5036193;28;20456;-76
2022/09/01 15:41:29;;;;;;;0.70;0.60;;;26.10;53.40;;;;;;5035624;28;20482;-76
2022/09/01 15:43:57;;;;;;;0.90;0.90;;;25.50;54.80;;;;;;5035778;28;20448;-75
2022/09/01 15:46:30;;;;;;;0.80;0.60;;;25.00;56.50;;;;;;5035254;28;20805;-76
2022/09/01 15:48:58;;;;;;;0.70;0.60;;;24.80;57.20;;;;;;5035691;28;20450;-76
2022/09/01 15:51:32;;;;;;;0.70;0.60;;;24.90;57.40;;;;;;5035481;28;20861;-76
2022/09/01 15:54:05;;;;;;;0.70;0.60;;;24.90;57.50;;;;;;5036461;28;20825;-76
2022/09/01 15:56:31;;;;;;;1.23;0.70;;;24.50;58.40;;;;;;5035476;28;20438;-75
2022/09/01 15:58:59;;;;;;;0.80;0.70;;;24.40;58.80;;;;;;5035414;28;20451;-76
2022/09/01 16:01:27;;;;;;;0.70;0.63;;;24.40;58.20;;;;;;5035115;28;20502;-76
2022/09/01 16:03:54;;;;;;;0.80;0.60;;;24.40;57.80;;;;;;5035245;28;20444;-76
2022/09/01 16:06:21;;;;;;;0.70;0.60;;;24.50;57.70;;;;;;5034829;28;20934;-76